Time;durP1;ratioP1;P1;durP2;ratioP2;P2;SDS_P1;SDS_P2;PMS_P1;PMS_P2;Temp;Humidity;BMP_temperature;BMP_pressure;BME280_temperature;BME280_humidity;BME280_pressure;Samples;Min_cycle;Max_cycle;Signal;HPM_P1;HPM_P2
2022/10/02 00:00:16;;;;;;;11.30;9.20;;;;;;;9.81;87.87;98240.06;88762;1273;24280;-74
2022/10/02 00:03:02;;;;;;;11.70;9.50;;;;;;;9.81;87.91;98244.27;88657;1270;98818;-74
2022/10/02 00:05:13;;;;;;;13.40;8.20;;;;;;;9.80;88.16;98252.05;88704;1271;22542;-75
2022/10/02 00:07:18;;;;;;;10.80;8.20;;;;;;;9.78;88.07;98252.70;88595;1271;22562;-75
2022/10/02 00:09:37;;;;;;;8.60;7.80;;;;;;;9.78;87.76;98253.92;88478;1272;97706;-73
2022/10/02 00:11:43;;;;;;;10.80;8.20;;;;;;;9.76;88.03;98254.56;88644;1273;22760;-75
2022/10/02 00:13:51;;;;;;;10.90;8.20;;;;;;;9.77;87.89;98258.36;88774;1273;24243;-75
2022/10/02 00:15:55;;;;;;;9.40;8.30;;;;;;;9.75;88.06;98258.98;88719;1270;98970;-73
2022/10/02 00:18:06;;;;;;;10.90;8.40;;;;;;;9.76;88.02;98263.84;88879;1271;23509;-74
2022/10/02 00:20:13;;;;;;;9.70;8.80;;;;;;;9.76;87.78;98264.55;88675;1274;22668;-73
2022/10/02 00:22:23;;;;;;;14.10;8.80;;;;;;;9.76;88.04;98265.42;88461;1274;98554;-74
2022/10/02 00:24:33;;;;;;;10.00;8.00;;;;;;;9.76;88.19;98267.55;88719;1271;23768;-74
2022/10/02 00:27:14;;;;;;;13.90;8.50;;;;;;;9.77;87.92;98269.27;88613;1274;98781;-75
2022/10/02 00:29:16;;;;;;;15.40;8.00;;;;;;;9.76;88.16;98270.55;88793;1270;24264;-75
2022/10/02 00:31:48;;;;;;;10.20;7.50;;;;;;;9.76;87.88;98271.61;88716;1273;22580;-72
2022/10/02 00:34:22;;;;;;;8.80;7.90;;;;;;;9.75;87.89;98272.51;88571;1271;99012;-74
2022/10/02 00:36:47;;;;;;;9.60;7.20;;;;;;;9.74;88.29;98269.05;88808;1271;25442;-74
2022/10/02 00:39:28;;;;;;;12.00;7.70;;;;;;;9.75;88.09;98272.88;88683;1271;98647;-75
2022/10/02 00:41:45;;;;;;;10.30;8.20;;;;;;;9.75;88.02;98275.85;88536;1277;22562;-75
2022/10/02 00:43:55;;;;;;;8.70;7.50;;;;;;;9.76;87.91;98275.98;88459;1276;22792;-74
2022/10/02 00:46:51;;;;;;;19.20;7.10;;;;;;;9.75;88.17;98277.76;88193;1278;97574;-74
2022/10/02 00:49:06;;;;;;;8.60;7.20;;;;;;;9.76;88.11;98278.77;88078;1283;24361;-74
2022/10/02 00:51:17;;;;;;;11.70;7.30;;;;;;;9.78;88.22;98281.14;87929;1281;98480;-74
2022/10/02 00:53:28;;;;;;;7.40;6.70;;;;;;;9.79;88.19;98281.74;87984;1283;22612;-74
2022/10/02 00:56:05;;;;;;;10.80;7.20;;;;;;;9.81;88.36;98281.84;88022;1280;25809;-75
2022/10/02 00:58:16;;;;;;;10.20;7.40;;;;;;;9.83;88.25;98282.25;87970;1280;99392;-74
2022/10/02 01:00:21;;;;;;;9.00;7.80;;;;;;;9.84;88.39;98281.84;88209;1282;22710;-75
2022/10/02 01:02:35;;;;;;;8.20;7.40;;;;;;;9.84;88.17;98288.82;87904;1283;97545;-74
2022/10/02 01:04:39;;;;;;;10.50;8.10;;;;;;;9.86;88.33;98296.26;88265;1280;22756;-73
2022/10/02 01:06:41;;;;;;;12.20;8.10;;;;;;;9.87;88.24;98298.85;87808;1283;25961;-72
2022/10/02 01:08:43;;;;;;;13.20;8.90;;;;;;;9.89;88.06;98302.42;87768;1284;99049;-73
2022/10/02 01:10:45;;;;;;;9.90;8.80;;;;;;;9.90;88.19;98299.22;88094;1281;22666;-75
2022/10/02 01:12:51;;;;;;;9.70;8.50;;;;;;;9.93;88.26;98300.84;88202;1281;22726;-74
2022/10/02 01:14:53;;;;;;;11.30;8.60;;;;;;;9.94;87.96;98301.62;87840;1283;97599;-73
2022/10/02 01:16:55;;;;;;;9.70;8.60;;;;;;;9.97;88.25;98303.56;87972;1280;24239;-73
2022/10/02 01:18:56;;;;;;;15.90;9.10;;;;;;;9.98;88.32;98303.67;88046;1280;25678;-74
2022/10/02 01:21:13;;;;;;;15.40;8.80;;;;;;;9.99;88.22;98303.10;88167;1279;98974;-74
2022/10/02 01:23:32;;;;;;;9.50;8.30;;;;;;;10.01;88.07;98302.98;88158;1280;22573;-74
2022/10/02 01:25:33;;;;;;;11.70;8.60;;;;;;;10.01;88.14;98304.54;88421;1274;22592;-75
2022/10/02 01:27:37;;;;;;;9.70;8.70;;;;;;;10.02;88.03;98307.83;88258;1274;98975;-75
2022/10/02 01:29:42;;;;;;;17.00;8.70;;;;;;;10.04;88.14;98310.73;88697;1273;22584;-74
2022/10/02 01:31:44;;;;;;;13.60;7.80;;;;;;;10.04;88.00;98311.91;88716;1272;24374;-74
2022/10/02 01:33:48;;;;;;;8.50;7.50;;;;;;;10.05;88.27;98306.43;88472;1273;99029;-73
2022/10/02 01:35:50;;;;;;;9.20;8.30;;;;;;;10.07;88.18;98312.33;88632;1273;22602;-75
2022/10/02 01:37:53;;;;;;;25.70;8.40;;;;;;;10.08;88.16;98317.34;88559;1271;22636;-75
2022/10/02 01:40:02;;;;;;;8.60;7.70;;;;;;;10.08;88.18;98317.14;88603;1273;98974;-74
2022/10/02 01:42:04;;;;;;;11.60;7.20;;;;;;;10.10;88.32;98324.11;88446;1273;22553;-73
2022/10/02 01:44:05;;;;;;;16.00;8.90;;;;;;;10.10;88.06;98324.05;88666;1273;25271;-74
2022/10/02 01:46:46;;;;;;;8.90;6.20;;;;;;;10.11;88.19;98328.42;88516;1273;99200;-75
2022/10/02 01:49:01;;;;;;;6.90;6.00;;;;;;;10.11;88.26;98330.86;88663;1271;22589;-73
2022/10/02 01:51:30;;;;;;;11.20;5.50;;;;;;;10.11;88.06;98334.23;88501;1271;97844;-74
2022/10/02 01:53:55;;;;;;;5.80;5.10;;;;;;;10.11;88.22;98334.39;88527;1271;22681;-74
2022/10/02 01:56:22;;;;;;;5.50;4.80;;;;;;;10.11;88.27;98335.26;88577;1271;22505;-75
2022/10/02 01:58:49;;;;;;;5.20;4.80;;;;;;;10.12;88.13;98337.47;88687;1271;22597;-74
2022/10/02 02:01:11;;;;;;;6.70;5.20;;;;;;;10.11;88.23;98336.32;88450;1276;22685;-73
2022/10/02 02:03:19;;;;;;;10.00;5.20;;;;;;;10.14;88.15;98341.41;88389;1274;99086;-73
2022/10/02 02:05:55;;;;;;;5.80;5.20;;;;;;;10.14;88.26;98340.49;88520;1274;24181;-74
2022/10/02 02:08:18;;;;;;;6.50;5.10;;;;;;;10.16;88.24;98341.30;88487;1274;22789;-73
2022/10/02 02:10:39;;;;;;;6.00;4.40;;;;;;;10.17;88.23;98341.40;88446;1274;24342;-73
2022/10/02 02:12:45;;;;;;;8.60;4.70;;;;;;;10.17;88.11;98343.85;88487;1274;22512;-73
2022/10/02 02:14:52;;;;;;;7.40;4.60;;;;;;;10.17;88.08;98345.77;88436;1277;99099;-73
2022/10/02 02:17:01;;;;;;;7.10;4.50;;;;;;;10.18;88.03;98344.20;88473;1277;23537;-74
2022/10/02 02:19:16;;;;;;;5.80;5.30;;;;;;;10.19;88.00;98345.16;88507;1277;22554;-74
2022/10/02 02:21:32;;;;;;;9.30;4.70;;;;;;;10.19;88.00;98344.64;88358;1275;98849;-74
2022/10/02 02:23:37;;;;;;;6.10;4.60;;;;;;;10.21;87.99;98350.33;88498;1277;22673;-75
2022/10/02 02:25:44;;;;;;;5.10;4.70;;;;;;;10.21;88.06;98346.98;88558;1274;22720;-75
2022/10/02 02:27:54;;;;;;;7.40;4.70;;;;;;;10.22;88.05;98348.85;88302;1277;100062;-75
2022/10/02 02:30:05;;;;;;;9.60;4.20;;;;;;;10.22;88.19;98350.61;88735;1277;22588;-73
2022/10/02 02:32:12;;;;;;;5.80;4.40;;;;;;;10.23;88.10;98353.53;88506;1277;22545;-74
2022/10/02 02:34:19;;;;;;;8.60;3.90;;;;;;;10.23;88.13;98350.02;88483;1277;99185;-75
2022/10/02 02:36:25;;;;;;;10.50;4.40;;;;;;;10.23;88.16;98352.48;88445;1277;24807;-74
2022/10/02 02:38:39;;;;;;;5.40;4.90;;;;;;;10.23;88.01;98355.08;88264;1274;99562;-74
2022/10/02 02:40:43;;;;;;;5.30;4.50;;;;;;;10.23;88.07;98357.71;89196;1270;22941;-75
2022/10/02 02:42:54;;;;;;;9.30;4.30;;;;;;;10.23;88.00;98358.59;88625;1271;22561;-74
2022/10/02 02:44:59;;;;;;;7.90;4.30;;;;;;;10.24;88.09;98353.83;88711;1274;98874;-73
2022/10/02 02:47:27;;;;;;;5.90;4.10;;;;;;;10.24;87.97;98351.00;88880;1271;22944;-75
2022/10/02 02:49:53;;;;;;;8.60;4.20;;;;;;;10.23;88.12;98355.60;88808;1271;25391;-73
2022/10/02 02:52:30;;;;;;;6.80;3.80;;;;;;;10.22;88.04;98360.60;88827;1271;98358;-74
2022/10/02 02:54:47;;;;;;;4.40;3.60;;;;;;;10.21;88.12;98360.84;88900;1271;23590;-74
2022/10/02 02:56:51;;;;;;;3.80;3.50;;;;;;;10.20;88.09;98364.21;88863;1274;98290;-75
2022/10/02 02:59:10;;;;;;;9.50;4.00;;;;;;;10.20;88.04;98362.81;88690;1273;24200;-75
2022/10/02 03:01:12;;;;;;;5.70;4.60;;;;;;;10.19;88.07;98361.64;88441;1274;24230;-76
2022/10/02 03:03:14;;;;;;;6.60;4.10;;;;;;;10.18;88.07;98361.55;88351;1273;97996;-74
2022/10/02 03:05:18;;;;;;;5.10;4.70;;;;;;;10.18;88.00;98363.31;88652;1273;24364;-74
2022/10/02 03:07:19;;;;;;;6.50;4.10;;;;;;;10.17;88.00;98367.95;88594;1271;22702;-73
2022/10/02 03:09:24;;;;;;;5.50;4.20;;;;;;;10.15;87.99;98375.05;88556;1273;99667;-74
2022/10/02 03:11:44;;;;;;;4.40;4.00;;;;;;;10.14;87.97;98374.94;88593;1273;22884;-74
2022/10/02 03:14:11;;;;;;;4.40;4.10;;;;;;;10.13;87.97;98374.31;88603;1271;22571;-74
2022/10/02 03:16:34;;;;;;;4.30;4.00;;;;;;;10.10;87.97;98374.78;88593;1271;97427;-74
2022/10/02 03:18:53;;;;;;;7.00;4.20;;;;;;;10.08;87.97;98377.71;88664;1271;25287;-75
2022/10/02 03:21:22;;;;;;;4.80;3.90;;;;;;;10.07;88.07;98375.16;88660;1271;97658;-76
2022/10/02 03:23:32;;;;;;;9.00;4.20;;;;;;;10.07;88.21;98380.44;88572;1273;22815;-74
2022/10/02 03:25:58;;;;;;;12.60;4.20;;;;;;;10.06;88.17;98378.70;88759;1270;22564;-74
2022/10/02 03:28:12;;;;;;;5.80;4.20;;;;;;;10.07;88.07;98383.08;88691;1270;97967;-76
2022/10/02 03:30:23;;;;;;;5.90;4.40;;;;;;;10.05;87.95;98377.52;88738;1270;22557;-76
2022/10/02 03:32:26;;;;;;;4.60;4.20;;;;;;;10.05;87.95;98378.03;88726;1273;98010;-75
2022/10/02 03:34:32;;;;;;;6.90;4.40;;;;;;;10.07;87.99;98386.42;88336;1273;22544;-75
2022/10/02 03:36:33;;;;;;;5.00;4.40;;;;;;;10.07;88.02;98381.09;88692;1273;24202;-74
2022/10/02 03:38:37;;;;;;;5.10;4.40;;;;;;;10.10;88.04;98386.23;88646;1273;99131;-75
2022/10/02 03:40:39;;;;;;;5.00;4.30;;;;;;;10.10;88.12;98389.02;88859;1273;22695;-73
2022/10/02 03:42:41;;;;;;;5.30;4.40;;;;;;;10.11;88.14;98389.86;88567;1271;24775;-75
2022/10/02 03:44:43;;;;;;;7.40;4.30;;;;;;;10.12;87.99;98388.21;88543;1273;98534;-75
2022/10/02 03:46:44;;;;;;;7.30;3.80;;;;;;;10.12;88.05;98395.96;88585;1271;22553;-72
2022/10/02 03:48:46;;;;;;;4.20;3.90;;;;;;;10.12;87.95;98402.59;88560;1272;22676;-74
2022/10/02 03:50:51;;;;;;;4.20;3.80;;;;;;;10.13;87.88;98405.90;88619;1270;99374;-75
2022/10/02 03:52:53;;;;;;;5.20;4.70;;;;;;;10.14;87.84;98400.70;88510;1271;22621;-74
2022/10/02 03:54:56;;;;;;;5.20;4.00;;;;;;;10.16;87.96;98405.38;88672;1271;22634;-74
2022/10/02 03:57:04;;;;;;;3.90;3.60;;;;;;;10.18;87.97;98409.14;88513;1272;98944;-75
2022/10/02 03:59:15;;;;;;;5.10;4.00;;;;;;;10.17;87.87;98409.50;88878;1271;25468;-74
2022/10/02 04:01:23;;;;;;;8.20;4.10;;;;;;;10.18;87.93;98411.25;88762;1272;25401;-73
2022/10/02 04:03:30;;;;;;;7.00;3.60;;;;;;;10.18;87.93;98414.88;88551;1270;97812;-75
2022/10/02 04:06:10;;;;;;;8.80;4.10;;;;;;;10.16;87.73;98413.79;88727;1271;24345;-74
2022/10/02 04:08:24;;;;;;;4.50;4.00;;;;;;;10.17;87.82;98420.95;88415;1276;25360;-74
2022/10/02 04:10:29;;;;;;;6.50;4.20;;;;;;;10.06;87.69;98405.92;88622;1276;22583;-75
2022/10/02 04:12:37;;;;;;;9.60;4.50;;;;;;;10.16;87.84;98426.25;88523;1276;22660;-75
2022/10/02 04:14:47;;;;;;;14.50;4.30;;;;;;;10.17;87.62;98433.59;88618;1276;97846;-75
2022/10/02 04:17:01;;;;;;;6.70;3.90;;;;;;;10.16;87.72;98434.31;88740;1276;22692;-74
2022/10/02 04:19:13;;;;;;;7.10;4.30;;;;;;;10.16;87.80;98433.83;88561;1276;22502;-75
2022/10/02 04:21:24;;;;;;;5.10;4.40;;;;;;;10.17;87.73;98440.10;88365;1276;98776;-74
2022/10/02 04:23:32;;;;;;;6.70;4.40;;;;;;;10.17;87.79;98442.71;88530;1276;22642;-75
2022/10/02 04:25:43;;;;;;;7.20;4.30;;;;;;;10.18;87.88;98446.52;88596;1276;22592;-75
2022/10/02 04:27:58;;;;;;;9.70;4.50;;;;;;;10.18;87.82;98446.88;88326;1279;97917;-73
2022/10/02 04:30:13;;;;;;;6.70;4.10;;;;;;;10.18;87.64;98447.74;88681;1276;22579;-75
2022/10/02 04:32:44;;;;;;;8.40;3.90;;;;;;;10.18;87.90;98449.47;88397;1280;22622;-75
2022/10/02 04:34:46;;;;;;;4.20;3.80;;;;;;;10.17;87.92;98449.04;88376;1276;24329;-73
2022/10/02 04:36:59;;;;;;;4.80;4.10;;;;;;;10.16;87.79;98453.29;88208;1277;22587;-74
2022/10/02 04:39:20;;;;;;;9.30;4.00;;;;;;;10.16;87.80;98459.59;88573;1276;99657;-75
2022/10/02 04:41:48;;;;;;;4.70;4.00;;;;;;;10.16;87.81;98463.11;88604;1276;24151;-74
2022/10/02 04:43:56;;;;;;;4.40;3.90;;;;;;;10.17;87.79;98462.73;88694;1272;24212;-76
2022/10/02 04:46:20;;;;;;;5.80;4.10;;;;;;;10.16;87.82;98466.09;88871;1270;97861;-75
2022/10/02 04:48:34;;;;;;;5.60;4.10;;;;;;;10.17;87.83;98476.25;88919;1270;22739;-75
2022/10/02 04:51:08;;;;;;;4.40;4.00;;;;;;;10.17;87.78;98480.11;88959;1270;98139;-75
2022/10/02 04:53:48;;;;;;;5.10;3.90;;;;;;;10.18;87.91;98484.11;88938;1271;26712;-74
2022/10/02 04:56:08;;;;;;;4.40;4.00;;;;;;;10.19;87.88;98488.95;88744;1273;24259;-74
2022/10/02 04:58:32;;;;;;;4.80;4.00;;;;;;;10.20;87.79;98489.56;88836;1273;98140;-74
2022/10/02 05:00:45;;;;;;;7.00;4.00;;;;;;;10.22;87.75;98494.23;88671;1273;22845;-76
2022/10/02 05:02:52;;;;;;;6.20;3.60;;;;;;;10.23;88.00;98495.21;88442;1273;99018;-76
2022/10/02 05:05:07;;;;;;;6.80;4.00;;;;;;;10.23;87.75;98498.17;88754;1273;23975;-74
2022/10/02 05:07:12;;;;;;;8.70;4.90;;;;;;;10.26;87.73;98499.44;88742;1273;22568;-76
2022/10/02 05:09:32;;;;;;;5.60;4.80;;;;;;;10.29;87.79;98496.50;88643;1273;97601;-75
2022/10/02 05:11:43;;;;;;;5.00;4.00;;;;;;;10.30;87.80;98500.45;88629;1275;23794;-75
2022/10/02 05:14:17;;;;;;;4.60;4.20;;;;;;;10.31;87.76;98502.15;88717;1274;25400;-76
2022/10/02 05:16:53;;;;;;;6.50;4.30;;;;;;;10.33;87.64;98502.08;88697;1281;98026;-75
2022/10/02 05:19:21;;;;;;;6.60;4.20;;;;;;;10.34;87.64;98509.04;88392;1280;25928;-76
2022/10/02 05:21:41;;;;;;;13.50;4.30;;;;;;;10.36;87.54;98509.46;88302;1279;99271;-75
2022/10/02 05:24:11;;;;;;;13.90;3.80;;;;;;;10.38;87.69;98516.93;88131;1282;23165;-75
2022/10/02 05:26:48;;;;;;;4.30;4.00;;;;;;;10.40;87.52;98517.86;88221;1279;25258;-75
2022/10/02 05:29:11;;;;;;;5.00;4.10;;;;;;;10.41;87.54;98521.71;88102;1280;22677;-75
2022/10/02 05:31:24;;;;;;;7.10;4.30;;;;;;;10.42;87.53;98521.10;88111;1280;22957;-75
2022/10/02 05:33:38;;;;;;;6.60;4.00;;;;;;;10.43;87.48;98522.83;88137;1280;98946;-76
2022/10/02 05:35:58;;;;;;;8.40;4.00;;;;;;;10.45;87.56;98521.83;88212;1282;22585;-76
2022/10/02 05:38:28;;;;;;;7.30;3.80;;;;;;;10.46;87.54;98524.04;88199;1282;22650;-75
2022/10/02 05:40:40;;;;;;;6.90;5.20;;;;;;;10.47;87.50;98530.50;88013;1285;22648;-76
2022/10/02 05:42:51;;;;;;;5.20;3.90;;;;;;;10.48;87.50;98531.11;88245;1282;22555;-75
2022/10/02 05:45:01;;;;;;;5.20;4.00;;;;;;;10.51;87.41;98533.10;88143;1282;100445;-77
2022/10/02 05:47:15;;;;;;;7.60;3.80;;;;;;;10.53;87.57;98539.48;88011;1282;22599;-75
2022/10/02 05:49:28;;;;;;;4.70;3.50;;;;;;;10.56;87.41;98541.42;88002;1285;22720;-76
2022/10/02 05:51:42;;;;;;;6.90;3.40;;;;;;;10.59;87.48;98546.52;88173;1282;97908;-76
2022/10/02 05:53:53;;;;;;;7.00;3.80;;;;;;;10.61;87.32;98548.17;88511;1276;22640;-75
2022/10/02 05:56:01;;;;;;;5.90;3.80;;;;;;;10.63;87.38;98549.84;88472;1276;22777;-76
2022/10/02 05:58:16;;;;;;;4.70;3.20;;;;;;;10.64;87.38;98550.45;88584;1276;97954;-77
2022/10/02 06:00:30;;;;;;;12.20;3.40;;;;;;;10.66;87.38;98558.42;88586;1276;22582;-76
2022/10/02 06:02:57;;;;;;;6.90;4.10;;;;;;;10.67;87.32;98555.21;88600;1274;98207;-74
2022/10/02 06:05:17;;;;;;;4.90;3.20;;;;;;;10.69;87.28;98557.39;88493;1276;27021;-75
2022/10/02 06:07:20;;;;;;;4.50;3.60;;;;;;;10.70;87.35;98560.33;88839;1273;22644;-75
2022/10/02 06:09:51;;;;;;;5.40;3.50;;;;;;;10.71;87.15;98567.63;88829;1273;97926;-75
2022/10/02 06:12:06;;;;;;;7.40;4.30;;;;;;;10.72;87.22;98574.92;88885;1274;24330;-74
2022/10/02 06:14:16;;;;;;;7.10;3.50;;;;;;;10.72;87.12;98575.49;89088;1273;24464;-76
2022/10/02 06:16:26;;;;;;;4.20;3.30;;;;;;;10.72;87.15;98574.95;89172;1270;98437;-75
2022/10/02 06:18:32;;;;;;;6.30;4.20;;;;;;;10.75;87.20;98576.55;89169;1270;22603;-75
2022/10/02 06:20:49;;;;;;;6.00;3.20;;;;;;;10.78;87.22;98575.70;88820;1271;99336;-76
2022/10/02 06:23:05;;;;;;;7.00;3.20;;;;;;;10.81;87.22;98574.11;89126;1271;22624;-74
2022/10/02 06:25:36;;;;;;;11.30;3.60;;;;;;;10.85;87.21;98580.21;89262;1271;23941;-74
2022/10/02 06:27:45;;;;;;;5.30;3.50;;;;;;;10.86;87.14;98580.67;89095;1271;97838;-75
2022/10/02 06:29:58;;;;;;;7.40;3.60;;;;;;;10.87;87.12;98583.80;89493;1271;22563;-75
2022/10/02 06:32:18;;;;;;;7.10;3.10;;;;;;;10.88;87.15;98589.22;89334;1273;22729;-76
2022/10/02 06:34:22;;;;;;;3.80;2.80;;;;;;;10.87;87.10;98590.48;89232;1270;97763;-74
2022/10/02 06:37:05;;;;;;;6.00;2.70;;;;;;;10.88;87.24;98589.71;89126;1271;22576;-75
2022/10/02 06:39:18;;;;;;;3.40;3.00;;;;;;;10.88;87.09;98590.07;88760;1276;100082;-76
2022/10/02 06:41:38;;;;;;;3.40;3.00;;;;;;;10.89;87.10;98594.58;88721;1274;22557;-75
2022/10/02 06:44:18;;;;;;;10.10;3.40;;;;;;;10.89;87.14;98596.16;88826;1276;22598;-74
2022/10/02 06:47:07;;;;;;;4.80;2.90;;;;;;;10.90;87.14;98595.93;88767;1275;99378;-75
2022/10/02 06:49:33;;;;;;;5.30;3.20;;;;;;;10.94;87.15;98603.63;88512;1281;23668;-76
2022/10/02 06:51:49;;;;;;;5.70;3.50;;;;;;;10.97;87.14;98604.34;88494;1280;98778;-74
2022/10/02 06:54:10;;;;;;;3.80;2.90;;;;;;;11.01;87.07;98605.50;88880;1280;22723;-76
2022/10/02 06:56:30;;;;;;;;;;;;;;;11.06;86.99;98608.02;89120;1280;27096;-75
2022/10/02 06:58:47;;;;;;;6.60;2.90;;;;;;;11.10;86.97;98606.63;89004;1280;22667;-77
2022/10/02 07:01:02;;;;;;;4.50;3.10;;;;;;;11.15;86.94;98608.45;88903;1280;22579;-76
2022/10/02 07:03:31;;;;;;;4.40;3.00;;;;;;;11.22;87.04;98612.26;88474;1283;98108;-74
2022/10/02 07:06:12;;;;;;;13.00;3.10;;;;;;;11.29;86.89;98612.60;88602;1280;22606;-75
2022/10/02 07:08:48;;;;;;;7.90;2.80;;;;;;;11.36;86.79;98616.77;88582;1280;24212;-75
2022/10/02 07:11:21;;;;;;;7.10;3.00;;;;;;;11.42;86.65;98620.09;88388;1280;24157;-74
2022/10/02 07:14:07;;;;;;;8.90;3.00;;;;;;;11.48;86.69;98622.23;88572;1280;22588;-77
2022/10/02 07:16:46;;;;;;;9.40;3.20;;;;;;;11.56;86.60;98622.31;88368;1283;100497;-77
2022/10/02 07:19:18;;;;;;;11.10;3.10;;;;;;;11.60;86.49;98625.95;88430;1283;22747;-77
2022/10/02 07:21:19;;;;;;;10.20;3.30;;;;;;;11.62;86.45;98623.86;88254;1283;97937;-76
2022/10/02 07:23:34;;;;;;;7.10;2.40;;;;;;;11.64;86.22;98627.46;88589;1279;22887;-76
2022/10/02 07:26:03;;;;;;;8.90;3.30;;;;;;;11.65;86.42;98630.91;88586;1279;22928;-76
2022/10/02 07:28:10;;;;;;;10.30;2.60;;;;;;;11.66;86.32;98628.08;88556;1277;97722;-76
2022/10/02 07:30:15;;;;;;;7.80;2.70;;;;;;;11.66;86.23;98631.55;88886;1276;24356;-76
2022/10/02 07:32:29;;;;;;;9.90;2.30;;;;;;;11.67;86.25;98630.62;88900;1278;22543;-75
2022/10/02 07:34:55;;;;;;;6.80;2.60;;;;;;;11.69;86.16;98633.52;88846;1277;22497;-78
2022/10/02 07:37:44;;;;;;;11.00;3.50;;;;;;;11.70;86.07;98635.71;88845;1277;22943;-74
2022/10/02 07:40:45;;;;;;;3.20;2.30;;;;;;;11.70;86.11;98639.23;88447;1283;99728;-76
2022/10/02 07:43:05;;;;;;;5.50;2.90;;;;;;;11.70;85.89;98633.80;87786;1289;22615;-74
2022/10/02 07:45:20;;;;;;;7.30;3.30;;;;;;;11.72;86.04;98632.79;87810;1288;97733;-75
2022/10/02 07:47:48;;;;;;;4.50;2.80;;;;;;;11.73;85.89;98629.73;88389;1287;22617;-76
2022/10/02 07:50:05;;;;;;;5.30;2.50;;;;;;;11.77;86.14;98627.40;88399;1289;23868;-75
2022/10/02 07:52:25;;;;;;;7.00;2.70;;;;;;;11.84;86.01;98630.52;88143;1291;98358;-76
2022/10/02 07:54:27;;;;;;;5.80;2.80;;;;;;;11.92;86.06;98625.83;88814;1284;22680;-76
2022/10/02 07:56:31;;;;;;;6.60;3.00;;;;;;;12.01;85.95;98621.08;88736;1285;22595;-76
2022/10/02 07:58:58;;;;;;;8.80;3.00;;;;;;;12.12;85.81;98623.11;88575;1287;24219;-76
2022/10/02 08:01:12;;;;;;;5.40;3.20;;;;;;;12.17;85.71;98617.67;88904;1284;22654;-77
2022/10/02 08:03:16;;;;;;;4.40;2.70;;;;;;;12.30;85.42;98623.05;88693;1287;98012;-77
2022/10/02 08:05:25;;;;;;;9.50;3.40;;;;;;;12.37;85.33;98626.13;89064;1284;22513;-75
2022/10/02 08:07:28;;;;;;;7.50;2.80;;;;;;;12.45;85.48;98622.67;88736;1287;22595;-74
2022/10/02 08:09:47;;;;;;;3.60;2.30;;;;;;;12.52;85.17;98615.89;88645;1287;97873;-77
2022/10/02 08:12:10;;;;;;;9.30;2.70;;;;;;;12.57;85.18;98616.61;88747;1285;22750;-80
2022/10/02 08:14:29;;;;;;;14.10;3.30;;;;;;;12.66;84.95;98618.95;88795;1285;22598;-77
2022/10/02 08:16:45;;;;;;;8.60;2.60;;;;;;;12.72;84.97;98615.52;89205;1279;98825;-77
2022/10/02 08:18:59;;;;;;;14.10;2.90;;;;;;;12.74;84.59;98620.66;89657;1273;23039;-75
2022/10/02 08:21:01;;;;;;;;;;;;;;;12.77;84.86;98626.00;89857;1273;97936;-78
2022/10/02 08:23:19;;;;;;;4.50;2.30;;;;;;;12.77;84.58;98628.29;89801;1270;22666;-77
2022/10/02 08:25:34;;;;;;;10.80;3.10;;;;;;;12.75;84.52;98627.84;89733;1273;22719;-76
2022/10/02 08:27:58;;;;;;;7.00;2.80;;;;;;;12.70;84.41;98623.05;89845;1271;98489;-77
2022/10/02 08:30:05;;;;;;;7.90;3.00;;;;;;;12.72;84.17;98625.94;90086;1273;24008;-77
2022/10/02 08:32:15;;;;;;;9.90;2.90;;;;;;;12.73;84.37;98619.89;90234;1273;25247;-77
2022/10/02 08:34:20;;;;;;;9.00;2.80;;;;;;;12.74;84.41;98621.95;89793;1273;97669;-77
2022/10/02 08:37:14;;;;;;;6.80;2.60;;;;;;;12.78;84.61;98619.23;90202;1271;23449;-78
2022/10/02 08:39:41;;;;;;;5.50;3.10;;;;;;;12.79;84.01;98622.15;90219;1273;98644;-77
2022/10/02 08:42:06;;;;;;;10.90;3.00;;;;;;;12.78;84.18;98621.50;90320;1273;23886;-77
2022/10/02 08:44:37;;;;;;;4.40;2.20;;;;;;;12.77;84.03;98622.30;90235;1273;22639;-77
2022/10/02 08:47:14;;;;;;;12.50;2.80;;;;;;;12.72;84.06;98615.17;89726;1277;24230;-77
2022/10/02 08:49:28;;;;;;;7.30;2.50;;;;;;;12.67;83.80;98614.62;89741;1279;22889;-78
2022/10/02 08:51:57;;;;;;;6.10;2.70;;;;;;;12.63;83.65;98615.42;89746;1279;97675;-77
2022/10/02 08:54:44;;;;;;;4.60;2.50;;;;;;;12.63;83.70;98612.92;89812;1277;23907;-74
2022/10/02 08:57:15;;;;;;;5.40;2.40;;;;;;;12.66;83.91;98609.24;89241;1287;99297;-77
2022/10/02 08:59:31;;;;;;;9.50;2.90;;;;;;;12.77;84.03;98615.09;89083;1286;23118;-77
2022/10/02 09:02:01;;;;;;;3.90;2.60;;;;;;;12.85;83.99;98615.41;89141;1285;23025;-75
2022/10/02 09:04:18;;;;;;;8.80;3.10;;;;;;;13.02;84.13;98613.32;88630;1287;98120;-76
2022/10/02 09:07:06;;;;;;;8.20;2.60;;;;;;;13.15;83.69;98613.39;88931;1285;23036;-78
2022/10/02 09:09:40;;;;;;;10.30;2.80;;;;;;;13.29;83.90;98613.33;88815;1288;98028;-76
2022/10/02 09:12:00;;;;;;;4.50;2.50;;;;;;;13.41;83.74;98608.18;88250;1294;22626;-76
2022/10/02 09:14:09;;;;;;;10.00;2.10;;;;;;;13.54;83.61;98602.39;88360;1293;22584;-78
2022/10/02 09:16:16;;;;;;;7.20;2.50;;;;;;;13.56;82.94;98598.91;88090;1291;97946;-76
2022/10/02 09:19:08;;;;;;;4.50;2.20;;;;;;;13.54;82.62;98594.24;88132;1291;22684;-76
2022/10/02 09:21:43;;;;;;;10.50;2.70;;;;;;;13.53;82.46;98600.69;88052;1295;97659;-77
2022/10/02 09:24:12;;;;;;;4.10;2.40;;;;;;;13.52;82.37;98602.91;88042;1293;23505;-77
2022/10/02 09:26:49;;;;;;;6.90;2.60;;;;;;;13.48;82.43;98608.78;88111;1292;25273;-77
2022/10/02 09:29:12;;;;;;;9.00;2.40;;;;;;;13.42;82.20;98606.66;88584;1290;22681;-76
2022/10/02 09:31:30;;;;;;;7.20;2.50;;;;;;;13.36;82.33;98609.38;88464;1291;22915;-77
2022/10/02 09:33:50;;;;;;;7.00;2.40;;;;;;;13.30;82.26;98606.43;88310;1288;98031;-78
2022/10/02 09:36:19;;;;;;;17.80;2.80;;;;;;;13.24;82.08;98609.94;88952;1284;23138;-77
2022/10/02 09:38:57;;;;;;;11.90;3.40;;;;;;;13.19;82.30;98605.52;89100;1284;23071;-76
2022/10/02 09:41:27;;;;;;;8.50;2.70;;;;;;;13.17;82.36;98606.17;89188;1282;23408;-78
2022/10/02 09:44:06;;;;;;;8.70;2.80;;;;;;;13.14;82.12;98610.44;89390;1282;23804;-77
2022/10/02 09:46:20;;;;;;;9.60;2.60;;;;;;;13.10;82.26;98609.94;89468;1280;98480;-78
2022/10/02 09:48:59;;;;;;;6.10;2.40;;;;;;;13.08;82.13;98603.77;89342;1281;22574;-76
2022/10/02 09:51:12;;;;;;;10.10;2.60;;;;;;;13.06;82.18;98599.42;89517;1280;98500;-77
2022/10/02 09:53:26;;;;;;;11.50;2.60;;;;;;;13.05;82.14;98590.73;89733;1277;22572;-77
2022/10/02 09:56:14;;;;;;;6.90;2.40;;;;;;;13.06;82.24;98587.11;89896;1276;22692;-77
2022/10/02 09:58:37;;;;;;;7.30;2.40;;;;;;;13.07;82.38;98584.75;89558;1277;356592;-76
2022/10/02 10:00:59;;;;;;;6.90;2.90;;;;;;;13.13;82.19;98581.23;89931;1277;22574;-77
2022/10/02 10:03:35;;;;;;;7.90;2.70;;;;;;;13.19;82.13;98579.24;89983;1275;97738;-77
2022/10/02 10:05:52;;;;;;;7.60;3.10;;;;;;;13.26;82.26;98573.45;89999;1278;22600;-76
2022/10/02 10:08:02;;;;;;;6.70;2.60;;;;;;;13.39;82.10;98573.01;90197;1277;22613;-78
2022/10/02 10:10:37;;;;;;;5.00;2.60;;;;;;;13.53;82.03;98571.37;90009;1277;97911;-76
2022/10/02 10:13:06;;;;;;;3.90;2.30;;;;;;;13.75;81.84;98570.42;90082;1277;25258;-75
2022/10/02 10:15:39;;;;;;;8.70;2.40;;;;;;;13.97;81.94;98573.91;89925;1277;98180;-78
2022/10/02 10:18:25;;;;;;;5.70;2.40;;;;;;;14.32;82.01;98569.50;89901;1277;22576;-77
2022/10/02 10:20:33;;;;;;;11.40;2.40;;;;;;;14.74;81.66;98567.34;89066;1284;23163;-78
2022/10/02 10:22:56;;;;;;;6.70;2.60;;;;;;;15.02;81.49;98570.92;89146;1283;98189;-78
2022/10/02 10:25:19;;;;;;;6.90;2.20;;;;;;;15.31;80.77;98563.54;89294;1285;22675;-78
2022/10/02 10:27:37;;;;;;;3.50;2.00;;;;;;;15.51;79.90;98563.61;88932;1285;98625;-77
2022/10/02 10:30:20;;;;;;;9.60;2.40;;;;;;;15.53;79.79;98563.84;89045;1286;22668;-76
2022/10/02 10:33:08;;;;;;;3.80;2.00;;;;;;;15.42;79.75;98563.43;88727;1287;22598;-75
2022/10/02 10:35:52;;;;;;;7.10;2.30;;;;;;;15.30;79.82;98573.67;88416;1288;22580;-77
2022/10/02 10:40:47;;;;;;;7.00;1.80;;;;;;;15.06;79.64;98563.21;89081;1285;98426;-78
2022/10/02 10:43:08;;;;;;;6.40;2.30;;;;;;;14.97;79.73;98564.80;89175;1287;25401;-77
2022/10/02 10:45:33;;;;;;;5.50;1.90;;;;;;;14.88;79.52;98562.79;89418;1285;98055;-76
2022/10/02 10:47:46;;;;;;;5.70;2.20;;;;;;;14.77;79.45;98562.63;89370;1288;22654;-78
2022/10/02 10:50:07;;;;;;;7.30;2.00;;;;;;;14.71;79.59;98562.95;89658;1285;22799;-78
2022/10/02 10:52:38;;;;;;;6.30;2.10;;;;;;;14.62;79.63;98566.02;89492;1287;98147;-77